<?xml version="1.0" encoding="UTF-8" standalone="no" ?>
<gpx xmlns="http://www.topografix.com/GPX/1/1" xmlns:xsi="http://www.w3.org/2001/XMLSchema-instance" xsi:schemaLocation="http://www.topografix.com/GPX/1/1 http://www.topografix.com/GPX/1/1/gpx.xsd" version="1.1" creator="VisuGPX - https://www.visugpx.com">
  <metadata>
    <name>tour du chauffÃ©13km6+950</name>
    <desc><![CDATA[trace phil lacroix
]]></desc>
  </metadata>
  <wpt lat="46.30998" lon="6.78566">
    <ele>1216.2</ele>
    <name><![CDATA[tour du chauffÃ©13km6+950]]></name>
    <type><![CDATA[Generic]]></type>
  </wpt>
  <trk>
    <name><![CDATA[tour du chauffÃ©13km6+950]]></name>
    <extensions>
      <line xmlns="http://www.topografix.com/GPX/gpx_style/0/2">
        <color>0000FF</color>
        <width>4</width>
      </line>
    </extensions>
    <trkseg>
      <trkpt lat="46.30998" lon="6.78566">
        <ele>1216.2</ele>
        <time>2022-04-25T18:07:07Z</time>
      </trkpt>
      <trkpt lat="46.31036" lon="6.78467">
        <ele>1221.9</ele>
        <time>2022-04-25T18:07:13Z</time>
      </trkpt>
      <trkpt lat="46.31056" lon="6.78434">
        <ele>1224.7</ele>
        <time>2022-04-25T18:07:16Z</time>
      </trkpt>
      <trkpt lat="46.3111" lon="6.7837">
        <ele>1231.9</ele>
        <time>2022-04-25T18:07:20Z</time>
      </trkpt>
      <trkpt lat="46.31149" lon="6.78308">
        <ele>1235.5</ele>
        <time>2022-04-25T18:07:38Z</time>
      </trkpt>
      <trkpt lat="46.3117" lon="6.7827">
        <ele>1237.4</ele>
        <time>2022-04-25T18:07:47Z</time>
      </trkpt>
      <trkpt lat="46.31201" lon="6.78206">
        <ele>1241.9</ele>
        <time>2022-04-25T18:07:58Z</time>
      </trkpt>
      <trkpt lat="46.31228" lon="6.78176">
        <ele>1245.4</ele>
        <time>2022-04-25T18:08:06Z</time>
      </trkpt>
      <trkpt lat="46.31247" lon="6.78114">
        <ele>1251.1</ele>
        <time>2022-04-25T18:08:20Z</time>
      </trkpt>
      <trkpt lat="46.31247" lon="6.78058">
        <ele>1255.2</ele>
        <time>2022-04-25T18:08:38Z</time>
      </trkpt>
      <trkpt lat="46.31224" lon="6.78003">
        <ele>1264.4</ele>
        <time>2022-04-25T18:08:40Z</time>
      </trkpt>
      <trkpt lat="46.31223" lon="6.77954">
        <ele>1272.9</ele>
        <time>2022-04-25T18:08:58Z</time>
      </trkpt>
      <trkpt lat="46.31228" lon="6.77884">
        <ele>1283.1</ele>
        <time>2022-04-25T18:09:15Z</time>
      </trkpt>
      <trkpt lat="46.31232" lon="6.77812">
        <ele>1289.4</ele>
        <time>2022-04-25T18:09:23Z</time>
      </trkpt>
      <trkpt lat="46.31249" lon="6.77776">
        <ele>1290.3</ele>
        <time>2022-04-25T18:09:41Z</time>
      </trkpt>
      <trkpt lat="46.31245" lon="6.77707">
        <ele>1304.3</ele>
        <time>2022-04-25T18:10:00Z</time>
      </trkpt>
      <trkpt lat="46.31245" lon="6.77636">
        <ele>1313</ele>
        <time>2022-04-25T18:10:03Z</time>
      </trkpt>
      <trkpt lat="46.3124" lon="6.77595">
        <ele>1318.5</ele>
        <time>2022-04-25T18:10:16Z</time>
      </trkpt>
      <trkpt lat="46.31207" lon="6.77635">
        <ele>1327.9</ele>
        <time>2022-04-25T18:10:33Z</time>
      </trkpt>
      <trkpt lat="46.31197" lon="6.77608">
        <ele>1335.1</ele>
        <time>2022-04-25T18:10:39Z</time>
      </trkpt>
      <trkpt lat="46.31189" lon="6.77591">
        <ele>1341.4</ele>
        <time>2022-04-25T18:10:58Z</time>
      </trkpt>
      <trkpt lat="46.31179" lon="6.77586">
        <ele>1348.1</ele>
        <time>2022-04-25T18:11:16Z</time>
      </trkpt>
      <trkpt lat="46.31159" lon="6.77595">
        <ele>1358.6</ele>
        <time>2022-04-25T18:11:23Z</time>
      </trkpt>
      <trkpt lat="46.31145" lon="6.77619">
        <ele>1362.6</ele>
        <time>2022-04-25T18:11:29Z</time>
      </trkpt>
      <trkpt lat="46.31139" lon="6.77589">
        <ele>1371.9</ele>
        <time>2022-04-25T18:11:43Z</time>
      </trkpt>
      <trkpt lat="46.31122" lon="6.77605">
        <ele>1381.1</ele>
        <time>2022-04-25T18:11:56Z</time>
      </trkpt>
      <trkpt lat="46.31119" lon="6.77588">
        <ele>1385.9</ele>
        <time>2022-04-25T18:12:01Z</time>
      </trkpt>
      <trkpt lat="46.31103" lon="6.77606">
        <ele>1395.7</ele>
        <time>2022-04-25T18:12:04Z</time>
      </trkpt>
      <trkpt lat="46.31098" lon="6.77569">
        <ele>1404.9</ele>
        <time>2022-04-25T18:12:24Z</time>
      </trkpt>
      <trkpt lat="46.31088" lon="6.77591">
        <ele>1410.3</ele>
        <time>2022-04-25T18:12:26Z</time>
      </trkpt>
      <trkpt lat="46.31079" lon="6.77602">
        <ele>1417.3</ele>
        <time>2022-04-25T18:12:29Z</time>
      </trkpt>
      <trkpt lat="46.31069" lon="6.77598">
        <ele>1427.2</ele>
        <time>2022-04-25T18:12:41Z</time>
      </trkpt>
      <trkpt lat="46.31064" lon="6.77583">
        <ele>1431.7</ele>
        <time>2022-04-25T18:12:59Z</time>
      </trkpt>
      <trkpt lat="46.3106" lon="6.77563">
        <ele>1437.4</ele>
        <time>2022-04-25T18:13:01Z</time>
      </trkpt>
      <trkpt lat="46.31051" lon="6.77531">
        <ele>1452.1</ele>
        <time>2022-04-25T18:13:21Z</time>
      </trkpt>
      <trkpt lat="46.31025" lon="6.77522">
        <ele>1481</ele>
        <time>2022-04-25T18:13:24Z</time>
      </trkpt>
      <trkpt lat="46.31008" lon="6.77514">
        <ele>1509</ele>
        <time>2022-04-25T18:13:33Z</time>
      </trkpt>
      <trkpt lat="46.30993" lon="6.77524">
        <ele>1526</ele>
        <time>2022-04-25T18:13:35Z</time>
      </trkpt>
      <trkpt lat="46.30979" lon="6.77527">
        <ele>1545.3</ele>
        <time>2022-04-25T18:13:54Z</time>
      </trkpt>
      <trkpt lat="46.30965" lon="6.77561">
        <ele>1538.7</ele>
        <time>2022-04-25T18:14:11Z</time>
      </trkpt>
      <trkpt lat="46.30961" lon="6.77599">
        <ele>1525.4</ele>
        <time>2022-04-25T18:14:14Z</time>
      </trkpt>
      <trkpt lat="46.30958" lon="6.7764">
        <ele>1516.2</ele>
        <time>2022-04-25T18:14:22Z</time>
      </trkpt>
      <trkpt lat="46.30943" lon="6.77674">
        <ele>1511.3</ele>
        <time>2022-04-25T18:14:42Z</time>
      </trkpt>
      <trkpt lat="46.30915" lon="6.77672">
        <ele>1512.9</ele>
        <time>2022-04-25T18:14:44Z</time>
      </trkpt>
      <trkpt lat="46.30886" lon="6.77646">
        <ele>1516.7</ele>
        <time>2022-04-25T18:14:52Z</time>
      </trkpt>
      <trkpt lat="46.30867" lon="6.77605">
        <ele>1521.2</ele>
        <time>2022-04-25T18:15:06Z</time>
      </trkpt>
      <trkpt lat="46.30864" lon="6.77562">
        <ele>1528.5</ele>
        <time>2022-04-25T18:15:23Z</time>
      </trkpt>
      <trkpt lat="46.30868" lon="6.77515">
        <ele>1539</ele>
        <time>2022-04-25T18:15:43Z</time>
      </trkpt>
      <trkpt lat="46.30882" lon="6.77494">
        <ele>1542.9</ele>
        <time>2022-04-25T18:16:03Z</time>
      </trkpt>
      <trkpt lat="46.30882" lon="6.77436">
        <ele>1561.8</ele>
        <time>2022-04-25T18:16:22Z</time>
      </trkpt>
      <trkpt lat="46.30843" lon="6.77449">
        <ele>1565.1</ele>
        <time>2022-04-25T18:16:42Z</time>
      </trkpt>
      <trkpt lat="46.3081" lon="6.77449">
        <ele>1574</ele>
        <time>2022-04-25T18:16:56Z</time>
      </trkpt>
      <trkpt lat="46.30772" lon="6.77459">
        <ele>1579.7</ele>
        <time>2022-04-25T18:17:10Z</time>
      </trkpt>
      <trkpt lat="46.30701" lon="6.77472">
        <ele>1590.4</ele>
        <time>2022-04-25T18:17:22Z</time>
      </trkpt>
      <trkpt lat="46.30674" lon="6.77479">
        <ele>1598.4</ele>
        <time>2022-04-25T18:17:28Z</time>
      </trkpt>
      <trkpt lat="46.30661" lon="6.77526">
        <ele>1600.2</ele>
        <time>2022-04-25T18:17:34Z</time>
      </trkpt>
      <trkpt lat="46.30641" lon="6.77554">
        <ele>1606.1</ele>
        <time>2022-04-25T18:17:40Z</time>
      </trkpt>
      <trkpt lat="46.30625" lon="6.77517">
        <ele>1609.1</ele>
        <time>2022-04-25T18:17:45Z</time>
      </trkpt>
      <trkpt lat="46.30597" lon="6.77479">
        <ele>1606.8</ele>
        <time>2022-04-25T18:17:56Z</time>
      </trkpt>
      <trkpt lat="46.30551" lon="6.77418">
        <ele>1601.1</ele>
        <time>2022-04-25T18:18:03Z</time>
      </trkpt>
      <trkpt lat="46.30515" lon="6.77384">
        <ele>1596.4</ele>
        <time>2022-04-25T18:18:20Z</time>
      </trkpt>
      <trkpt lat="46.30472" lon="6.77373">
        <ele>1590.7</ele>
        <time>2022-04-25T18:18:31Z</time>
      </trkpt>
      <trkpt lat="46.30434" lon="6.7733">
        <ele>1585.7</ele>
        <time>2022-04-25T18:18:44Z</time>
      </trkpt>
      <trkpt lat="46.30406" lon="6.77277">
        <ele>1577.1</ele>
        <time>2022-04-25T18:18:48Z</time>
      </trkpt>
      <trkpt lat="46.30386" lon="6.77155">
        <ele>1563</ele>
        <time>2022-04-25T18:18:55Z</time>
      </trkpt>
      <trkpt lat="46.3037" lon="6.77086">
        <ele>1557.4</ele>
        <time>2022-04-25T18:19:13Z</time>
      </trkpt>
      <trkpt lat="46.3033" lon="6.77058">
        <ele>1552.7</ele>
        <time>2022-04-25T18:19:29Z</time>
      </trkpt>
      <trkpt lat="46.3029" lon="6.76981">
        <ele>1551.4</ele>
        <time>2022-04-25T18:19:40Z</time>
      </trkpt>
      <trkpt lat="46.30259" lon="6.76923">
        <ele>1548.7</ele>
        <time>2022-04-25T18:19:54Z</time>
      </trkpt>
      <trkpt lat="46.30218" lon="6.76869">
        <ele>1544.9</ele>
        <time>2022-04-25T18:20:02Z</time>
      </trkpt>
      <trkpt lat="46.30184" lon="6.76859">
        <ele>1537</ele>
        <time>2022-04-25T18:20:08Z</time>
      </trkpt>
      <trkpt lat="46.30139" lon="6.7682">
        <ele>1531</ele>
        <time>2022-04-25T18:20:14Z</time>
      </trkpt>
      <trkpt lat="46.30086" lon="6.76764">
        <ele>1524.6</ele>
        <time>2022-04-25T18:20:32Z</time>
      </trkpt>
      <trkpt lat="46.30075" lon="6.76702">
        <ele>1517.2</ele>
        <time>2022-04-25T18:20:48Z</time>
      </trkpt>
      <trkpt lat="46.30046" lon="6.76614">
        <ele>1505</ele>
        <time>2022-04-25T18:21:01Z</time>
      </trkpt>
      <trkpt lat="46.30031" lon="6.76543">
        <ele>1500.1</ele>
        <time>2022-04-25T18:21:16Z</time>
      </trkpt>
      <trkpt lat="46.30026" lon="6.76479">
        <ele>1498</ele>
        <time>2022-04-25T18:21:26Z</time>
      </trkpt>
      <trkpt lat="46.30053" lon="6.76442">
        <ele>1495.4</ele>
        <time>2022-04-25T18:21:33Z</time>
      </trkpt>
      <trkpt lat="46.30109" lon="6.76429">
        <ele>1487.6</ele>
        <time>2022-04-25T18:21:44Z</time>
      </trkpt>
      <trkpt lat="46.30149" lon="6.7643">
        <ele>1487.2</ele>
        <time>2022-04-25T18:21:50Z</time>
      </trkpt>
      <trkpt lat="46.302" lon="6.76425">
        <ele>1484.4</ele>
        <time>2022-04-25T18:22:09Z</time>
      </trkpt>
      <trkpt lat="46.30235" lon="6.76406">
        <ele>1479</ele>
        <time>2022-04-25T18:22:29Z</time>
      </trkpt>
      <trkpt lat="46.30269" lon="6.76399">
        <ele>1471.6</ele>
        <time>2022-04-25T18:22:44Z</time>
      </trkpt>
      <trkpt lat="46.30314" lon="6.76432">
        <ele>1471.8</ele>
        <time>2022-04-25T18:22:52Z</time>
      </trkpt>
      <trkpt lat="46.30398" lon="6.76468">
        <ele>1465</ele>
        <time>2022-04-25T18:23:06Z</time>
      </trkpt>
      <trkpt lat="46.30407" lon="6.76438">
        <ele>1460.9</ele>
        <time>2022-04-25T18:23:16Z</time>
      </trkpt>
      <trkpt lat="46.30366" lon="6.76373">
        <ele>1442.6</ele>
        <time>2022-04-25T18:23:30Z</time>
      </trkpt>
      <trkpt lat="46.30342" lon="6.76294">
        <ele>1428.6</ele>
        <time>2022-04-25T18:23:36Z</time>
      </trkpt>
      <trkpt lat="46.30306" lon="6.76223">
        <ele>1412.2</ele>
        <time>2022-04-25T18:23:41Z</time>
      </trkpt>
      <trkpt lat="46.30277" lon="6.76183">
        <ele>1402</ele>
        <time>2022-04-25T18:23:59Z</time>
      </trkpt>
      <trkpt lat="46.30262" lon="6.76155">
        <ele>1394.6</ele>
        <time>2022-04-25T18:24:12Z</time>
      </trkpt>
      <trkpt lat="46.3024" lon="6.76092">
        <ele>1383.4</ele>
        <time>2022-04-25T18:24:28Z</time>
      </trkpt>
      <trkpt lat="46.30212" lon="6.76043">
        <ele>1372.3</ele>
        <time>2022-04-25T18:24:47Z</time>
      </trkpt>
      <trkpt lat="46.30213" lon="6.75983">
        <ele>1361.7</ele>
        <time>2022-04-25T18:25:00Z</time>
      </trkpt>
      <trkpt lat="46.30197" lon="6.75938">
        <ele>1356.1</ele>
        <time>2022-04-25T18:25:14Z</time>
      </trkpt>
      <trkpt lat="46.30179" lon="6.75912">
        <ele>1346.2</ele>
        <time>2022-04-25T18:25:19Z</time>
      </trkpt>
      <trkpt lat="46.3017" lon="6.75878">
        <ele>1338.5</ele>
        <time>2022-04-25T18:25:31Z</time>
      </trkpt>
      <trkpt lat="46.30157" lon="6.75833">
        <ele>1328.8</ele>
        <time>2022-04-25T18:25:37Z</time>
      </trkpt>
      <trkpt lat="46.30124" lon="6.75854">
        <ele>1318</ele>
        <time>2022-04-25T18:25:57Z</time>
      </trkpt>
      <trkpt lat="46.30102" lon="6.75831">
        <ele>1308.8</ele>
        <time>2022-04-25T18:26:01Z</time>
      </trkpt>
      <trkpt lat="46.30112" lon="6.75796">
        <ele>1302.2</ele>
        <time>2022-04-25T18:26:12Z</time>
      </trkpt>
      <trkpt lat="46.30114" lon="6.75764">
        <ele>1295.7</ele>
        <time>2022-04-25T18:26:29Z</time>
      </trkpt>
      <trkpt lat="46.30103" lon="6.75719">
        <ele>1287.6</ele>
        <time>2022-04-25T18:26:43Z</time>
      </trkpt>
      <trkpt lat="46.30083" lon="6.75668">
        <ele>1282.8</ele>
        <time>2022-04-25T18:26:55Z</time>
      </trkpt>
      <trkpt lat="46.30065" lon="6.7562">
        <ele>1279.5</ele>
        <time>2022-04-25T18:27:03Z</time>
      </trkpt>
      <trkpt lat="46.30047" lon="6.75599">
        <ele>1273.8</ele>
        <time>2022-04-25T18:27:13Z</time>
      </trkpt>
      <trkpt lat="46.30046" lon="6.75556">
        <ele>1272.6</ele>
        <time>2022-04-25T18:27:26Z</time>
      </trkpt>
      <trkpt lat="46.30019" lon="6.755">
        <ele>1266.3</ele>
        <time>2022-04-25T18:27:37Z</time>
      </trkpt>
      <trkpt lat="46.30004" lon="6.75438">
        <ele>1267.1</ele>
        <time>2022-04-25T18:27:53Z</time>
      </trkpt>
      <trkpt lat="46.30014" lon="6.75372">
        <ele>1262.4</ele>
        <time>2022-04-25T18:28:13Z</time>
      </trkpt>
      <trkpt lat="46.29989" lon="6.75337">
        <ele>1262.4</ele>
        <time>2022-04-25T18:28:23Z</time>
      </trkpt>
      <trkpt lat="46.29961" lon="6.75324">
        <ele>1255.8</ele>
        <time>2022-04-25T18:28:43Z</time>
      </trkpt>
      <trkpt lat="46.29945" lon="6.75279">
        <ele>1255.1</ele>
        <time>2022-04-25T18:29:02Z</time>
      </trkpt>
      <trkpt lat="46.29925" lon="6.75236">
        <ele>1249.7</ele>
        <time>2022-04-25T18:29:13Z</time>
      </trkpt>
      <trkpt lat="46.29917" lon="6.75191">
        <ele>1248.2</ele>
        <time>2022-04-25T18:29:23Z</time>
      </trkpt>
      <trkpt lat="46.29922" lon="6.75133">
        <ele>1245.4</ele>
        <time>2022-04-25T18:29:40Z</time>
      </trkpt>
      <trkpt lat="46.29927" lon="6.75071">
        <ele>1244.5</ele>
        <time>2022-04-25T18:29:46Z</time>
      </trkpt>
      <trkpt lat="46.29877" lon="6.75058">
        <ele>1238.4</ele>
        <time>2022-04-25T18:29:52Z</time>
      </trkpt>
      <trkpt lat="46.29857" lon="6.75009">
        <ele>1234.4</ele>
        <time>2022-04-25T18:30:03Z</time>
      </trkpt>
      <trkpt lat="46.29839" lon="6.74977">
        <ele>1232.2</ele>
        <time>2022-04-25T18:30:12Z</time>
      </trkpt>
      <trkpt lat="46.29841" lon="6.74932">
        <ele>1238.2</ele>
        <time>2022-04-25T18:30:30Z</time>
      </trkpt>
      <trkpt lat="46.29817" lon="6.74893">
        <ele>1240.4</ele>
        <time>2022-04-25T18:30:42Z</time>
      </trkpt>
      <trkpt lat="46.29808" lon="6.74829">
        <ele>1244.4</ele>
        <time>2022-04-25T18:30:56Z</time>
      </trkpt>
      <trkpt lat="46.29816" lon="6.74758">
        <ele>1252.2</ele>
        <time>2022-04-25T18:30:58Z</time>
      </trkpt>
      <trkpt lat="46.29826" lon="6.74704">
        <ele>1252.5</ele>
        <time>2022-04-25T18:31:05Z</time>
      </trkpt>
      <trkpt lat="46.29854" lon="6.74651">
        <ele>1263.7</ele>
        <time>2022-04-25T18:31:20Z</time>
      </trkpt>
      <trkpt lat="46.29861" lon="6.74593">
        <ele>1270.2</ele>
        <time>2022-04-25T18:31:29Z</time>
      </trkpt>
      <trkpt lat="46.29873" lon="6.74529">
        <ele>1284.2</ele>
        <time>2022-04-25T18:31:43Z</time>
      </trkpt>
      <trkpt lat="46.29849" lon="6.74473">
        <ele>1291.7</ele>
        <time>2022-04-25T18:31:51Z</time>
      </trkpt>
      <trkpt lat="46.29854" lon="6.74434">
        <ele>1294.2</ele>
        <time>2022-04-25T18:32:09Z</time>
      </trkpt>
      <trkpt lat="46.29869" lon="6.7435">
        <ele>1308.9</ele>
        <time>2022-04-25T18:32:29Z</time>
      </trkpt>
      <trkpt lat="46.2986" lon="6.74279">
        <ele>1317.9</ele>
        <time>2022-04-25T18:32:47Z</time>
      </trkpt>
      <trkpt lat="46.29854" lon="6.74221">
        <ele>1322.8</ele>
        <time>2022-04-25T18:33:04Z</time>
      </trkpt>
      <trkpt lat="46.29831" lon="6.74121">
        <ele>1329.3</ele>
        <time>2022-04-25T18:33:14Z</time>
      </trkpt>
      <trkpt lat="46.29796" lon="6.74066">
        <ele>1339.5</ele>
        <time>2022-04-25T18:33:32Z</time>
      </trkpt>
      <trkpt lat="46.29773" lon="6.74037">
        <ele>1345.8</ele>
        <time>2022-04-25T18:33:45Z</time>
      </trkpt>
      <trkpt lat="46.29773" lon="6.73979">
        <ele>1353.4</ele>
        <time>2022-04-25T18:33:54Z</time>
      </trkpt>
      <trkpt lat="46.29805" lon="6.73985">
        <ele>1357.5</ele>
        <time>2022-04-25T18:34:03Z</time>
      </trkpt>
      <trkpt lat="46.29802" lon="6.73945">
        <ele>1363.5</ele>
        <time>2022-04-25T18:34:15Z</time>
      </trkpt>
      <trkpt lat="46.29775" lon="6.73894">
        <ele>1372.3</ele>
        <time>2022-04-25T18:34:30Z</time>
      </trkpt>
      <trkpt lat="46.29739" lon="6.73889">
        <ele>1374.4</ele>
        <time>2022-04-25T18:34:42Z</time>
      </trkpt>
      <trkpt lat="46.29745" lon="6.73825">
        <ele>1383.1</ele>
        <time>2022-04-25T18:34:53Z</time>
      </trkpt>
      <trkpt lat="46.29745" lon="6.73778">
        <ele>1392.6</ele>
        <time>2022-04-25T18:35:03Z</time>
      </trkpt>
      <trkpt lat="46.29788" lon="6.73786">
        <ele>1395.4</ele>
        <time>2022-04-25T18:35:07Z</time>
      </trkpt>
      <trkpt lat="46.29816" lon="6.73781">
        <ele>1401.1</ele>
        <time>2022-04-25T18:35:10Z</time>
      </trkpt>
      <trkpt lat="46.29799" lon="6.73745">
        <ele>1405</ele>
        <time>2022-04-25T18:35:26Z</time>
      </trkpt>
      <trkpt lat="46.29788" lon="6.73702">
        <ele>1410.3</ele>
        <time>2022-04-25T18:35:43Z</time>
      </trkpt>
      <trkpt lat="46.29822" lon="6.73638">
        <ele>1421</ele>
        <time>2022-04-25T18:35:46Z</time>
      </trkpt>
      <trkpt lat="46.29829" lon="6.7358">
        <ele>1431.7</ele>
        <time>2022-04-25T18:35:55Z</time>
      </trkpt>
      <trkpt lat="46.29822" lon="6.73494">
        <ele>1445.7</ele>
        <time>2022-04-25T18:36:04Z</time>
      </trkpt>
      <trkpt lat="46.29846" lon="6.73409">
        <ele>1455.7</ele>
        <time>2022-04-25T18:36:17Z</time>
      </trkpt>
      <trkpt lat="46.29874" lon="6.73342">
        <ele>1463.9</ele>
        <time>2022-04-25T18:36:26Z</time>
      </trkpt>
      <trkpt lat="46.29896" lon="6.73293">
        <ele>1468.5</ele>
        <time>2022-04-25T18:36:28Z</time>
      </trkpt>
      <trkpt lat="46.29921" lon="6.73269">
        <ele>1474.3</ele>
        <time>2022-04-25T18:36:32Z</time>
      </trkpt>
      <trkpt lat="46.29926" lon="6.73237">
        <ele>1478.5</ele>
        <time>2022-04-25T18:36:41Z</time>
      </trkpt>
      <trkpt lat="46.29928" lon="6.73196">
        <ele>1484.1</ele>
        <time>2022-04-25T18:37:01Z</time>
      </trkpt>
      <trkpt lat="46.29963" lon="6.73155">
        <ele>1495.4</ele>
        <time>2022-04-25T18:37:09Z</time>
      </trkpt>
      <trkpt lat="46.29989" lon="6.73103">
        <ele>1506.4</ele>
        <time>2022-04-25T18:37:13Z</time>
      </trkpt>
      <trkpt lat="46.29988" lon="6.73061">
        <ele>1507.2</ele>
        <time>2022-04-25T18:37:17Z</time>
      </trkpt>
      <trkpt lat="46.2998" lon="6.72994">
        <ele>1515.7</ele>
        <time>2022-04-25T18:37:30Z</time>
      </trkpt>
      <trkpt lat="46.29977" lon="6.72919">
        <ele>1526.5</ele>
        <time>2022-04-25T18:37:47Z</time>
      </trkpt>
      <trkpt lat="46.29951" lon="6.72852">
        <ele>1534.6</ele>
        <time>2022-04-25T18:38:06Z</time>
      </trkpt>
      <trkpt lat="46.29924" lon="6.72786">
        <ele>1543.4</ele>
        <time>2022-04-25T18:38:14Z</time>
      </trkpt>
      <trkpt lat="46.29974" lon="6.72807">
        <ele>1547</ele>
        <time>2022-04-25T18:38:20Z</time>
      </trkpt>
      <trkpt lat="46.3008" lon="6.72861">
        <ele>1561.1</ele>
        <time>2022-04-25T18:38:26Z</time>
      </trkpt>
      <trkpt lat="46.30112" lon="6.72891">
        <ele>1558.7</ele>
        <time>2022-04-25T18:38:29Z</time>
      </trkpt>
      <trkpt lat="46.30094" lon="6.72936">
        <ele>1554.9</ele>
        <time>2022-04-25T18:38:49Z</time>
      </trkpt>
      <trkpt lat="46.30094" lon="6.72987">
        <ele>1551.3</ele>
        <time>2022-04-25T18:38:51Z</time>
      </trkpt>
      <trkpt lat="46.30089" lon="6.73024">
        <ele>1550.1</ele>
        <time>2022-04-25T18:39:05Z</time>
      </trkpt>
      <trkpt lat="46.30102" lon="6.73086">
        <ele>1551.4</ele>
        <time>2022-04-25T18:39:20Z</time>
      </trkpt>
      <trkpt lat="46.3012" lon="6.73138">
        <ele>1554.9</ele>
        <time>2022-04-25T18:39:29Z</time>
      </trkpt>
      <trkpt lat="46.30132" lon="6.732">
        <ele>1557.1</ele>
        <time>2022-04-25T18:39:35Z</time>
      </trkpt>
      <trkpt lat="46.3014" lon="6.7325">
        <ele>1558.9</ele>
        <time>2022-04-25T18:39:41Z</time>
      </trkpt>
      <trkpt lat="46.30183" lon="6.73292">
        <ele>1560.2</ele>
        <time>2022-04-25T18:39:44Z</time>
      </trkpt>
      <trkpt lat="46.30222" lon="6.73299">
        <ele>1553.6</ele>
        <time>2022-04-25T18:39:53Z</time>
      </trkpt>
      <trkpt lat="46.30252" lon="6.73363">
        <ele>1539.4</ele>
        <time>2022-04-25T18:39:57Z</time>
      </trkpt>
      <trkpt lat="46.30278" lon="6.73436">
        <ele>1536.7</ele>
        <time>2022-04-25T18:40:04Z</time>
      </trkpt>
      <trkpt lat="46.30298" lon="6.73518">
        <ele>1531.7</ele>
        <time>2022-04-25T18:40:15Z</time>
      </trkpt>
      <trkpt lat="46.30323" lon="6.73563">
        <ele>1521.1</ele>
        <time>2022-04-25T18:40:27Z</time>
      </trkpt>
      <trkpt lat="46.3037" lon="6.73696">
        <ele>1500.1</ele>
        <time>2022-04-25T18:40:36Z</time>
      </trkpt>
      <trkpt lat="46.30377" lon="6.73748">
        <ele>1499.2</ele>
        <time>2022-04-25T18:40:39Z</time>
      </trkpt>
      <trkpt lat="46.30401" lon="6.73803">
        <ele>1494.1</ele>
        <time>2022-04-25T18:40:50Z</time>
      </trkpt>
      <trkpt lat="46.30437" lon="6.7385">
        <ele>1483.9</ele>
        <time>2022-04-25T18:41:10Z</time>
      </trkpt>
      <trkpt lat="46.30444" lon="6.7391">
        <ele>1484</ele>
        <time>2022-04-25T18:41:14Z</time>
      </trkpt>
      <trkpt lat="46.30458" lon="6.7397">
        <ele>1480.9</ele>
        <time>2022-04-25T18:41:19Z</time>
      </trkpt>
      <trkpt lat="46.30464" lon="6.74007">
        <ele>1481.7</ele>
        <time>2022-04-25T18:41:30Z</time>
      </trkpt>
      <trkpt lat="46.30468" lon="6.74039">
        <ele>1483.5</ele>
        <time>2022-04-25T18:41:44Z</time>
      </trkpt>
      <trkpt lat="46.30483" lon="6.74065">
        <ele>1480.9</ele>
        <time>2022-04-25T18:41:47Z</time>
      </trkpt>
      <trkpt lat="46.30493" lon="6.74101">
        <ele>1479.5</ele>
        <time>2022-04-25T18:41:53Z</time>
      </trkpt>
      <trkpt lat="46.30524" lon="6.74121">
        <ele>1483.1</ele>
        <time>2022-04-25T18:42:04Z</time>
      </trkpt>
      <trkpt lat="46.3059" lon="6.74133">
        <ele>1484.4</ele>
        <time>2022-04-25T18:42:22Z</time>
      </trkpt>
      <trkpt lat="46.30628" lon="6.74168">
        <ele>1485.6</ele>
        <time>2022-04-25T18:42:40Z</time>
      </trkpt>
      <trkpt lat="46.30655" lon="6.74228">
        <ele>1488.8</ele>
        <time>2022-04-25T18:42:53Z</time>
      </trkpt>
      <trkpt lat="46.30681" lon="6.74223">
        <ele>1490</ele>
        <time>2022-04-25T18:43:06Z</time>
      </trkpt>
      <trkpt lat="46.30681" lon="6.74279">
        <ele>1495.1</ele>
        <time>2022-04-25T18:43:12Z</time>
      </trkpt>
      <trkpt lat="46.3071" lon="6.74311">
        <ele>1498.4</ele>
        <time>2022-04-25T18:43:18Z</time>
      </trkpt>
      <trkpt lat="46.30763" lon="6.74352">
        <ele>1508.8</ele>
        <time>2022-04-25T18:43:32Z</time>
      </trkpt>
      <trkpt lat="46.30789" lon="6.74379">
        <ele>1515.1</ele>
        <time>2022-04-25T18:43:51Z</time>
      </trkpt>
      <trkpt lat="46.30805" lon="6.74432">
        <ele>1520</ele>
        <time>2022-04-25T18:44:05Z</time>
      </trkpt>
      <trkpt lat="46.30821" lon="6.74482">
        <ele>1525.4</ele>
        <time>2022-04-25T18:44:20Z</time>
      </trkpt>
      <trkpt lat="46.30849" lon="6.74552">
        <ele>1534.1</ele>
        <time>2022-04-25T18:44:35Z</time>
      </trkpt>
      <trkpt lat="46.30895" lon="6.74689">
        <ele>1546.6</ele>
        <time>2022-04-25T18:44:48Z</time>
      </trkpt>
      <trkpt lat="46.30919" lon="6.74736">
        <ele>1548.6</ele>
        <time>2022-04-25T18:44:51Z</time>
      </trkpt>
      <trkpt lat="46.30935" lon="6.74786">
        <ele>1549</ele>
        <time>2022-04-25T18:45:02Z</time>
      </trkpt>
      <trkpt lat="46.30954" lon="6.7485">
        <ele>1552.8</ele>
        <time>2022-04-25T18:45:05Z</time>
      </trkpt>
      <trkpt lat="46.30954" lon="6.74912">
        <ele>1556.7</ele>
        <time>2022-04-25T18:45:13Z</time>
      </trkpt>
      <trkpt lat="46.30984" lon="6.74949">
        <ele>1564.8</ele>
        <time>2022-04-25T18:45:31Z</time>
      </trkpt>
      <trkpt lat="46.30997" lon="6.75005">
        <ele>1573.7</ele>
        <time>2022-04-25T18:45:33Z</time>
      </trkpt>
      <trkpt lat="46.31015" lon="6.75043">
        <ele>1577.6</ele>
        <time>2022-04-25T18:45:53Z</time>
      </trkpt>
      <trkpt lat="46.3103" lon="6.75095">
        <ele>1578.4</ele>
        <time>2022-04-25T18:45:59Z</time>
      </trkpt>
      <trkpt lat="46.31034" lon="6.75142">
        <ele>1577.7</ele>
        <time>2022-04-25T18:46:17Z</time>
      </trkpt>
      <trkpt lat="46.31049" lon="6.75178">
        <ele>1581.7</ele>
        <time>2022-04-25T18:46:23Z</time>
      </trkpt>
      <trkpt lat="46.31059" lon="6.75241">
        <ele>1583</ele>
        <time>2022-04-25T18:46:26Z</time>
      </trkpt>
      <trkpt lat="46.31076" lon="6.75273">
        <ele>1585.4</ele>
        <time>2022-04-25T18:46:28Z</time>
      </trkpt>
      <trkpt lat="46.31089" lon="6.75309">
        <ele>1585.1</ele>
        <time>2022-04-25T18:46:31Z</time>
      </trkpt>
      <trkpt lat="46.31088" lon="6.75341">
        <ele>1584.9</ele>
        <time>2022-04-25T18:46:50Z</time>
      </trkpt>
      <trkpt lat="46.31098" lon="6.75372">
        <ele>1587.7</ele>
        <time>2022-04-25T18:47:05Z</time>
      </trkpt>
      <trkpt lat="46.31089" lon="6.75404">
        <ele>1586.7</ele>
        <time>2022-04-25T18:47:12Z</time>
      </trkpt>
      <trkpt lat="46.31091" lon="6.75435">
        <ele>1590.5</ele>
        <time>2022-04-25T18:47:20Z</time>
      </trkpt>
      <trkpt lat="46.31082" lon="6.75477">
        <ele>1593.5</ele>
        <time>2022-04-25T18:47:25Z</time>
      </trkpt>
      <trkpt lat="46.31091" lon="6.75526">
        <ele>1599.7</ele>
        <time>2022-04-25T18:47:31Z</time>
      </trkpt>
      <trkpt lat="46.3108" lon="6.7559">
        <ele>1600.1</ele>
        <time>2022-04-25T18:47:47Z</time>
      </trkpt>
      <trkpt lat="46.31079" lon="6.75653">
        <ele>1604.3</ele>
        <time>2022-04-25T18:47:59Z</time>
      </trkpt>
      <trkpt lat="46.31107" lon="6.75713">
        <ele>1614.5</ele>
        <time>2022-04-25T18:48:03Z</time>
      </trkpt>
      <trkpt lat="46.31125" lon="6.75792">
        <ele>1635.8</ele>
        <time>2022-04-25T18:48:20Z</time>
      </trkpt>
      <trkpt lat="46.31135" lon="6.75861">
        <ele>1650.4</ele>
        <time>2022-04-25T18:48:40Z</time>
      </trkpt>
      <trkpt lat="46.31137" lon="6.75916">
        <ele>1664.8</ele>
        <time>2022-04-25T18:49:00Z</time>
      </trkpt>
      <trkpt lat="46.31144" lon="6.75961">
        <ele>1682.3</ele>
        <time>2022-04-25T18:49:17Z</time>
      </trkpt>
      <trkpt lat="46.31157" lon="6.76004">
        <ele>1693.7</ele>
        <time>2022-04-25T18:49:37Z</time>
      </trkpt>
      <trkpt lat="46.312" lon="6.7603">
        <ele>1681.5</ele>
        <time>2022-04-25T18:49:49Z</time>
      </trkpt>
      <trkpt lat="46.31242" lon="6.76073">
        <ele>1669.8</ele>
        <time>2022-04-25T18:50:07Z</time>
      </trkpt>
      <trkpt lat="46.31294" lon="6.7615">
        <ele>1655.5</ele>
        <time>2022-04-25T18:50:19Z</time>
      </trkpt>
      <trkpt lat="46.31325" lon="6.7617">
        <ele>1661.2</ele>
        <time>2022-04-25T18:50:25Z</time>
      </trkpt>
      <trkpt lat="46.31357" lon="6.76219">
        <ele>1657.9</ele>
        <time>2022-04-25T18:50:31Z</time>
      </trkpt>
      <trkpt lat="46.31387" lon="6.76279">
        <ele>1654.9</ele>
        <time>2022-04-25T18:50:34Z</time>
      </trkpt>
      <trkpt lat="46.31426" lon="6.76327">
        <ele>1651.8</ele>
        <time>2022-04-25T18:50:43Z</time>
      </trkpt>
      <trkpt lat="46.31464" lon="6.76316">
        <ele>1644.4</ele>
        <time>2022-04-25T18:50:50Z</time>
      </trkpt>
      <trkpt lat="46.31489" lon="6.76322">
        <ele>1634</ele>
        <time>2022-04-25T18:50:57Z</time>
      </trkpt>
      <trkpt lat="46.31517" lon="6.76316">
        <ele>1635.3</ele>
        <time>2022-04-25T18:51:14Z</time>
      </trkpt>
      <trkpt lat="46.31544" lon="6.76333">
        <ele>1627.2</ele>
        <time>2022-04-25T18:51:25Z</time>
      </trkpt>
      <trkpt lat="46.31589" lon="6.76339">
        <ele>1623.4</ele>
        <time>2022-04-25T18:51:37Z</time>
      </trkpt>
      <trkpt lat="46.31621" lon="6.76328">
        <ele>1622.9</ele>
        <time>2022-04-25T18:51:49Z</time>
      </trkpt>
      <trkpt lat="46.31646" lon="6.76316">
        <ele>1626.5</ele>
        <time>2022-04-25T18:52:05Z</time>
      </trkpt>
      <trkpt lat="46.31679" lon="6.76326">
        <ele>1623.2</ele>
        <time>2022-04-25T18:52:13Z</time>
      </trkpt>
      <trkpt lat="46.31711" lon="6.76327">
        <ele>1622.5</ele>
        <time>2022-04-25T18:52:22Z</time>
      </trkpt>
      <trkpt lat="46.3174" lon="6.76354">
        <ele>1613</ele>
        <time>2022-04-25T18:52:38Z</time>
      </trkpt>
      <trkpt lat="46.31766" lon="6.76384">
        <ele>1604.9</ele>
        <time>2022-04-25T18:52:54Z</time>
      </trkpt>
      <trkpt lat="46.31783" lon="6.76421">
        <ele>1599.7</ele>
        <time>2022-04-25T18:53:01Z</time>
      </trkpt>
      <trkpt lat="46.31798" lon="6.76457">
        <ele>1601.2</ele>
        <time>2022-04-25T18:53:05Z</time>
      </trkpt>
      <trkpt lat="46.3182" lon="6.76494">
        <ele>1599.7</ele>
        <time>2022-04-25T18:53:14Z</time>
      </trkpt>
      <trkpt lat="46.31838" lon="6.76517">
        <ele>1595.9</ele>
        <time>2022-04-25T18:53:25Z</time>
      </trkpt>
      <trkpt lat="46.31845" lon="6.76577">
        <ele>1593.3</ele>
        <time>2022-04-25T18:53:30Z</time>
      </trkpt>
      <trkpt lat="46.31826" lon="6.76627">
        <ele>1593.2</ele>
        <time>2022-04-25T18:53:45Z</time>
      </trkpt>
      <trkpt lat="46.31798" lon="6.76634">
        <ele>1588.7</ele>
        <time>2022-04-25T18:54:05Z</time>
      </trkpt>
      <trkpt lat="46.31797" lon="6.76605">
        <ele>1585.6</ele>
        <time>2022-04-25T18:54:12Z</time>
      </trkpt>
      <trkpt lat="46.31823" lon="6.76578">
        <ele>1588</ele>
        <time>2022-04-25T18:54:17Z</time>
      </trkpt>
      <trkpt lat="46.31795" lon="6.76564">
        <ele>1584.8</ele>
        <time>2022-04-25T18:54:29Z</time>
      </trkpt>
      <trkpt lat="46.3174" lon="6.7658">
        <ele>1579.2</ele>
        <time>2022-04-25T18:54:32Z</time>
      </trkpt>
      <trkpt lat="46.31732" lon="6.76567">
        <ele>1578.3</ele>
        <time>2022-04-25T18:54:47Z</time>
      </trkpt>
      <trkpt lat="46.31734" lon="6.76535">
        <ele>1578.5</ele>
        <time>2022-04-25T18:55:06Z</time>
      </trkpt>
      <trkpt lat="46.31728" lon="6.7651">
        <ele>1576.5</ele>
        <time>2022-04-25T18:55:15Z</time>
      </trkpt>
      <trkpt lat="46.31703" lon="6.76494">
        <ele>1573.8</ele>
        <time>2022-04-25T18:55:35Z</time>
      </trkpt>
      <trkpt lat="46.31672" lon="6.76517">
        <ele>1567.6</ele>
        <time>2022-04-25T18:55:55Z</time>
      </trkpt>
      <trkpt lat="46.31644" lon="6.76549">
        <ele>1558.6</ele>
        <time>2022-04-25T18:56:01Z</time>
      </trkpt>
      <trkpt lat="46.3161" lon="6.76522">
        <ele>1555.6</ele>
        <time>2022-04-25T18:56:13Z</time>
      </trkpt>
      <trkpt lat="46.3158" lon="6.7652">
        <ele>1549.7</ele>
        <time>2022-04-25T18:56:21Z</time>
      </trkpt>
      <trkpt lat="46.31563" lon="6.76543">
        <ele>1542.7</ele>
        <time>2022-04-25T18:56:40Z</time>
      </trkpt>
      <trkpt lat="46.31566" lon="6.76584">
        <ele>1536.3</ele>
        <time>2022-04-25T18:56:46Z</time>
      </trkpt>
      <trkpt lat="46.3158" lon="6.7661">
        <ele>1533.3</ele>
        <time>2022-04-25T18:56:57Z</time>
      </trkpt>
      <trkpt lat="46.31582" lon="6.76653">
        <ele>1525.6</ele>
        <time>2022-04-25T18:57:02Z</time>
      </trkpt>
      <trkpt lat="46.31586" lon="6.76676">
        <ele>1522.2</ele>
        <time>2022-04-25T18:57:09Z</time>
      </trkpt>
      <trkpt lat="46.31576" lon="6.76708">
        <ele>1514.8</ele>
        <time>2022-04-25T18:57:25Z</time>
      </trkpt>
      <trkpt lat="46.31586" lon="6.7673">
        <ele>1516.2</ele>
        <time>2022-04-25T18:57:29Z</time>
      </trkpt>
      <trkpt lat="46.31563" lon="6.76775">
        <ele>1507.9</ele>
        <time>2022-04-25T18:57:40Z</time>
      </trkpt>
      <trkpt lat="46.31546" lon="6.76831">
        <ele>1496.5</ele>
        <time>2022-04-25T18:58:00Z</time>
      </trkpt>
      <trkpt lat="46.31524" lon="6.76893">
        <ele>1483.4</ele>
        <time>2022-04-25T18:58:11Z</time>
      </trkpt>
      <trkpt lat="46.31509" lon="6.76929">
        <ele>1476.9</ele>
        <time>2022-04-25T18:58:24Z</time>
      </trkpt>
      <trkpt lat="46.31512" lon="6.76957">
        <ele>1475.6</ele>
        <time>2022-04-25T18:58:41Z</time>
      </trkpt>
      <trkpt lat="46.31496" lon="6.76994">
        <ele>1465.8</ele>
        <time>2022-04-25T18:58:52Z</time>
      </trkpt>
      <trkpt lat="46.31472" lon="6.76998">
        <ele>1457.2</ele>
        <time>2022-04-25T18:59:05Z</time>
      </trkpt>
      <trkpt lat="46.31477" lon="6.77037">
        <ele>1451.6</ele>
        <time>2022-04-25T18:59:21Z</time>
      </trkpt>
      <trkpt lat="46.31456" lon="6.77028">
        <ele>1444</ele>
        <time>2022-04-25T18:59:25Z</time>
      </trkpt>
      <trkpt lat="46.31435" lon="6.76991">
        <ele>1437.1</ele>
        <time>2022-04-25T18:59:36Z</time>
      </trkpt>
      <trkpt lat="46.31422" lon="6.76991">
        <ele>1432.3</ele>
        <time>2022-04-25T18:59:44Z</time>
      </trkpt>
      <trkpt lat="46.3141" lon="6.77054">
        <ele>1419.8</ele>
        <time>2022-04-25T18:59:53Z</time>
      </trkpt>
      <trkpt lat="46.31401" lon="6.7711">
        <ele>1410.6</ele>
        <time>2022-04-25T19:00:09Z</time>
      </trkpt>
      <trkpt lat="46.31373" lon="6.77097">
        <ele>1403.4</ele>
        <time>2022-04-25T19:00:11Z</time>
      </trkpt>
      <trkpt lat="46.31339" lon="6.77088">
        <ele>1398.7</ele>
        <time>2022-04-25T19:00:27Z</time>
      </trkpt>
      <trkpt lat="46.31339" lon="6.77133">
        <ele>1397.9</ele>
        <time>2022-04-25T19:00:37Z</time>
      </trkpt>
      <trkpt lat="46.3134" lon="6.7717">
        <ele>1396.1</ele>
        <time>2022-04-25T19:00:46Z</time>
      </trkpt>
      <trkpt lat="46.31351" lon="6.77215">
        <ele>1388.7</ele>
        <time>2022-04-25T19:01:00Z</time>
      </trkpt>
      <trkpt lat="46.31352" lon="6.77253">
        <ele>1382.6</ele>
        <time>2022-04-25T19:01:05Z</time>
      </trkpt>
      <trkpt lat="46.3134" lon="6.77292">
        <ele>1379.1</ele>
        <time>2022-04-25T19:01:24Z</time>
      </trkpt>
      <trkpt lat="46.31342" lon="6.77324">
        <ele>1373.8</ele>
        <time>2022-04-25T19:01:41Z</time>
      </trkpt>
      <trkpt lat="46.31296" lon="6.77389">
        <ele>1358.7</ele>
        <time>2022-04-25T19:01:57Z</time>
      </trkpt>
      <trkpt lat="46.31277" lon="6.77453">
        <ele>1344</ele>
        <time>2022-04-25T19:02:15Z</time>
      </trkpt>
      <trkpt lat="46.31269" lon="6.77502">
        <ele>1333.8</ele>
        <time>2022-04-25T19:02:19Z</time>
      </trkpt>
      <trkpt lat="46.31242" lon="6.77595">
        <ele>1317.9</ele>
        <time>2022-04-25T19:02:38Z</time>
      </trkpt>
      <trkpt lat="46.31245" lon="6.77636">
        <ele>1313</ele>
        <time>2022-04-25T19:02:42Z</time>
      </trkpt>
      <trkpt lat="46.31245" lon="6.77707">
        <ele>1304.3</ele>
        <time>2022-04-25T19:02:57Z</time>
      </trkpt>
      <trkpt lat="46.31248" lon="6.77774">
        <ele>1290.7</ele>
        <time>2022-04-25T19:03:15Z</time>
      </trkpt>
      <trkpt lat="46.31233" lon="6.77813">
        <ele>1289.2</ele>
        <time>2022-04-25T19:03:26Z</time>
      </trkpt>
      <trkpt lat="46.31228" lon="6.77884">
        <ele>1283.1</ele>
        <time>2022-04-25T19:03:31Z</time>
      </trkpt>
      <trkpt lat="46.31223" lon="6.77954">
        <ele>1272.9</ele>
        <time>2022-04-25T19:03:51Z</time>
      </trkpt>
      <trkpt lat="46.31225" lon="6.78005">
        <ele>1264.1</ele>
        <time>2022-04-25T19:04:06Z</time>
      </trkpt>
      <trkpt lat="46.31247" lon="6.78057">
        <ele>1255.3</ele>
        <time>2022-04-25T19:04:11Z</time>
      </trkpt>
      <trkpt lat="46.31247" lon="6.78115">
        <ele>1251</ele>
        <time>2022-04-25T19:04:28Z</time>
      </trkpt>
      <trkpt lat="46.31228" lon="6.78175">
        <ele>1245.4</ele>
        <time>2022-04-25T19:04:31Z</time>
      </trkpt>
      <trkpt lat="46.31201" lon="6.78207">
        <ele>1241.9</ele>
        <time>2022-04-25T19:04:35Z</time>
      </trkpt>
      <trkpt lat="46.31172" lon="6.78269">
        <ele>1237.6</ele>
        <time>2022-04-25T19:04:37Z</time>
      </trkpt>
      <trkpt lat="46.31149" lon="6.78305">
        <ele>1235.5</ele>
        <time>2022-04-25T19:04:39Z</time>
      </trkpt>
      <trkpt lat="46.31111" lon="6.7837">
        <ele>1232</ele>
        <time>2022-04-25T19:04:43Z</time>
      </trkpt>
      <trkpt lat="46.31057" lon="6.78432">
        <ele>1224.8</ele>
        <time>2022-04-25T19:05:00Z</time>
      </trkpt>
      <trkpt lat="46.31038" lon="6.78465">
        <ele>1222.3</ele>
        <time>2022-04-25T19:05:16Z</time>
      </trkpt>
      <trkpt lat="46.31008" lon="6.78506">
        <ele>1217.3</ele>
        <time>2022-04-25T19:05:29Z</time>
      </trkpt>
      <trkpt lat="46.30998" lon="6.78568">
        <ele>1216.1</ele>
        <time>2022-04-25T19:05:45Z</time>
      </trkpt>
    </trkseg>
  </trk>
</gpx>